sensor_id;sensor_type;location;lat;lon;timestamp;P1;durP1;ratioP1;P2;durP2;ratioP2
18685;SDS011;9473;52.342;13.110;2023-08-08T00:01:56;5.50;;;1.50;;
18685;SDS011;9473;52.342;13.110;2023-08-08T00:04:23;7.43;;;2.13;;
18685;SDS011;9473;52.342;13.110;2023-08-08T00:06:50;5.55;;;1.75;;
18685;SDS011;9473;52.342;13.110;2023-08-08T00:09:17;7.68;;;1.80;;
18685;SDS011;9473;52.342;13.110;2023-08-08T00:11:44;8.52;;;1.90;;
18685;SDS011;9473;52.342;13.110;2023-08-08T00:14:11;4.85;;;1.63;;
18685;SDS011;9473;52.342;13.110;2023-08-08T00:16:39;5.32;;;1.70;;
18685;SDS011;9473;52.342;13.110;2023-08-08T00:19:06;7.55;;;1.70;;
18685;SDS011;9473;52.342;13.110;2023-08-08T00:21:33;10.48;;;1.80;;
18685;SDS011;9473;52.342;13.110;2023-08-08T00:24:00;6.28;;;1.58;;
18685;SDS011;9473;52.342;13.110;2023-08-08T00:26:27;3.85;;;1.50;;
18685;SDS011;9473;52.342;13.110;2023-08-08T00:28:54;9.10;;;1.90;;
18685;SDS011;9473;52.342;13.110;2023-08-08T00:31:20;9.10;;;1.70;;
18685;SDS011;9473;52.342;13.110;2023-08-08T00:33:49;4.95;;;1.60;;
18685;SDS011;9473;52.342;13.110;2023-08-08T00:36:16;4.15;;;1.42;;
18685;SDS011;9473;52.342;13.110;2023-08-08T00:38:42;6.63;;;1.58;;
18685;SDS011;9473;52.342;13.110;2023-08-08T00:41:09;5.13;;;1.45;;
18685;SDS011;9473;52.342;13.110;2023-08-08T00:43:36;3.55;;;1.40;;
18685;SDS011;9473;52.342;13.110;2023-08-08T00:46:03;4.25;;;1.70;;
18685;SDS011;9473;52.342;13.110;2023-08-08T00:48:30;5.78;;;1.73;;
18685;SDS011;9473;52.342;13.110;2023-08-08T00:50:58;5.07;;;1.55;;
18685;SDS011;9473;52.342;13.110;2023-08-08T00:53:26;4.68;;;1.70;;
18685;SDS011;9473;52.342;13.110;2023-08-08T00:55:55;4.75;;;1.60;;
18685;SDS011;9473;52.342;13.110;2023-08-08T00:58:22;6.43;;;1.50;;
18685;SDS011;9473;52.342;13.110;2023-08-08T01:00:49;5.47;;;1.60;;
18685;SDS011;9473;52.342;13.110;2023-08-08T01:03:17;5.05;;;1.48;;
18685;SDS011;9473;52.342;13.110;2023-08-08T01:05:47;2.97;;;1.33;;
18685;SDS011;9473;52.342;13.110;2023-08-08T01:08:16;5.35;;;1.40;;
18685;SDS011;9473;52.342;13.110;2023-08-08T01:10:45;5.03;;;1.40;;
18685;SDS011;9473;52.342;13.110;2023-08-08T01:13:13;2.42;;;1.33;;
18685;SDS011;9473;52.342;13.110;2023-08-08T01:15:41;3.75;;;1.42;;
18685;SDS011;9473;52.342;13.110;2023-08-08T01:18:09;3.50;;;1.42;;
18685;SDS011;9473;52.342;13.110;2023-08-08T01:20:36;4.72;;;1.58;;
18685;SDS011;9473;52.342;13.110;2023-08-08T01:23:08;3.35;;;1.40;;
18685;SDS011;9473;52.342;13.110;2023-08-08T01:25:37;3.13;;;1.42;;
18685;SDS011;9473;52.342;13.110;2023-08-08T01:28:05;3.72;;;1.50;;
18685;SDS011;9473;52.342;13.110;2023-08-08T01:30:32;4.72;;;1.50;;
18685;SDS011;9473;52.342;13.110;2023-08-08T01:32:59;3.28;;;1.40;;
18685;SDS011;9473;52.342;13.110;2023-08-08T01:35:28;2.92;;;1.58;;
18685;SDS011;9473;52.342;13.110;2023-08-08T01:37:57;3.75;;;1.50;;
18685;SDS011;9473;52.342;13.110;2023-08-08T01:40:26;2.67;;;1.15;;
18685;SDS011;9473;52.342;13.110;2023-08-08T01:42:56;2.33;;;1.38;;
18685;SDS011;9473;52.342;13.110;2023-08-08T01:45:24;5.18;;;1.52;;
18685;SDS011;9473;52.342;13.110;2023-08-08T01:47:51;4.78;;;1.23;;
18685;SDS011;9473;52.342;13.110;2023-08-08T01:50:18;4.65;;;2.03;;
18685;SDS011;9473;52.342;13.110;2023-08-08T01:52:46;2.92;;;1.58;;
18685;SDS011;9473;52.342;13.110;2023-08-08T01:55:13;2.33;;;1.23;;
18685;SDS011;9473;52.342;13.110;2023-08-08T01:57:40;5.22;;;1.48;;
18685;SDS011;9473;52.342;13.110;2023-08-08T02:00:09;2.90;;;1.38;;
18685;SDS011;9473;52.342;13.110;2023-08-08T02:02:36;3.47;;;1.33;;
18685;SDS011;9473;52.342;13.110;2023-08-08T02:05:04;4.10;;;1.25;;
18685;SDS011;9473;52.342;13.110;2023-08-08T02:07:31;3.67;;;1.50;;
18685;SDS011;9473;52.342;13.110;2023-08-08T02:09:58;7.63;;;1.85;;
18685;SDS011;9473;52.342;13.110;2023-08-08T02:12:24;4.28;;;1.40;;
18685;SDS011;9473;52.342;13.110;2023-08-08T02:14:53;4.00;;;1.50;;
18685;SDS011;9473;52.342;13.110;2023-08-08T02:17:22;3.78;;;1.27;;
18685;SDS011;9473;52.342;13.110;2023-08-08T02:19:48;6.88;;;1.50;;
18685;SDS011;9473;52.342;13.110;2023-08-08T02:22:16;3.35;;;1.30;;
18685;SDS011;9473;52.342;13.110;2023-08-08T02:24:43;7.10;;;1.52;;
18685;SDS011;9473;52.342;13.110;2023-08-08T02:27:11;2.72;;;1.60;;
18685;SDS011;9473;52.342;13.110;2023-08-08T02:29:38;4.03;;;1.60;;
18685;SDS011;9473;52.342;13.110;2023-08-08T02:32:05;5.03;;;1.38;;
18685;SDS011;9473;52.342;13.110;2023-08-08T02:34:33;5.10;;;1.58;;
18685;SDS011;9473;52.342;13.110;2023-08-08T02:37:00;3.33;;;1.40;;
18685;SDS011;9473;52.342;13.110;2023-08-08T02:39:27;6.13;;;1.73;;
18685;SDS011;9473;52.342;13.110;2023-08-08T02:41:54;3.45;;;1.55;;
18685;SDS011;9473;52.342;13.110;2023-08-08T02:44:21;5.80;;;1.60;;
18685;SDS011;9473;52.342;13.110;2023-08-08T02:46:48;3.20;;;1.60;;
18685;SDS011;9473;52.342;13.110;2023-08-08T02:49:15;4.13;;;1.58;;
18685;SDS011;9473;52.342;13.110;2023-08-08T02:51:43;3.55;;;1.35;;
18685;SDS011;9473;52.342;13.110;2023-08-08T02:54:10;2.42;;;1.50;;
18685;SDS011;9473;52.342;13.110;2023-08-08T02:56:37;3.72;;;1.80;;
18685;SDS011;9473;52.342;13.110;2023-08-08T02:59:04;5.00;;;1.70;;
18685;SDS011;9473;52.342;13.110;2023-08-08T03:01:30;2.75;;;1.60;;
18685;SDS011;9473;52.342;13.110;2023-08-08T03:03:57;5.20;;;1.80;;
18685;SDS011;9473;52.342;13.110;2023-08-08T03:06:24;5.13;;;1.85;;
18685;SDS011;9473;52.342;13.110;2023-08-08T03:08:53;4.45;;;1.70;;
18685;SDS011;9473;52.342;13.110;2023-08-08T03:11:20;4.88;;;2.00;;
18685;SDS011;9473;52.342;13.110;2023-08-08T03:13:46;4.45;;;1.92;;
18685;SDS011;9473;52.342;13.110;2023-08-08T03:16:13;3.13;;;1.50;;
18685;SDS011;9473;52.342;13.110;2023-08-08T03:18:40;3.90;;;1.90;;
18685;SDS011;9473;52.342;13.110;2023-08-08T03:21:07;4.35;;;1.80;;
18685;SDS011;9473;52.342;13.110;2023-08-08T03:23:34;2.38;;;1.58;;
18685;SDS011;9473;52.342;13.110;2023-08-08T03:26:03;4.53;;;1.40;;
18685;SDS011;9473;52.342;13.110;2023-08-08T03:28:29;4.22;;;1.60;;
18685;SDS011;9473;52.342;13.110;2023-08-08T03:30:56;3.10;;;1.90;;
18685;SDS011;9473;52.342;13.110;2023-08-08T03:33:23;4.22;;;1.63;;
18685;SDS011;9473;52.342;13.110;2023-08-08T03:35:50;5.00;;;1.83;;
18685;SDS011;9473;52.342;13.110;2023-08-08T03:38:17;4.00;;;1.80;;
18685;SDS011;9473;52.342;13.110;2023-08-08T03:40:44;6.00;;;1.90;;
18685;SDS011;9473;52.342;13.110;2023-08-08T03:43:12;7.47;;;1.80;;
18685;SDS011;9473;52.342;13.110;2023-08-08T03:45:39;5.03;;;1.60;;
18685;SDS011;9473;52.342;13.110;2023-08-08T03:48:06;2.88;;;1.52;;
18685;SDS011;9473;52.342;13.110;2023-08-08T03:50:33;4.78;;;1.73;;
18685;SDS011;9473;52.342;13.110;2023-08-08T03:53:00;5.72;;;1.83;;
18685;SDS011;9473;52.342;13.110;2023-08-08T03:55:27;8.43;;;1.70;;
18685;SDS011;9473;52.342;13.110;2023-08-08T03:57:54;4.80;;;1.88;;
18685;SDS011;9473;52.342;13.110;2023-08-08T04:00:22;3.55;;;1.50;;
18685;SDS011;9473;52.342;13.110;2023-08-08T04:02:49;5.60;;;1.73;;
18685;SDS011;9473;52.342;13.110;2023-08-08T04:05:16;3.80;;;1.92;;
18685;SDS011;9473;52.342;13.110;2023-08-08T04:07:43;3.35;;;1.50;;
18685;SDS011;9473;52.342;13.110;2023-08-08T04:10:10;6.35;;;1.63;;
18685;SDS011;9473;52.342;13.110;2023-08-08T04:12:38;4.18;;;1.80;;
18685;SDS011;9473;52.342;13.110;2023-08-08T04:15:05;3.28;;;1.80;;
18685;SDS011;9473;52.342;13.110;2023-08-08T04:17:33;4.80;;;1.60;;
18685;SDS011;9473;52.342;13.110;2023-08-08T04:20:00;5.43;;;1.80;;
18685;SDS011;9473;52.342;13.110;2023-08-08T04:22:27;3.75;;;1.60;;
18685;SDS011;9473;52.342;13.110;2023-08-08T04:24:54;4.57;;;1.30;;
18685;SDS011;9473;52.342;13.110;2023-08-08T04:27:21;2.40;;;1.45;;
18685;SDS011;9473;52.342;13.110;2023-08-08T04:29:48;2.97;;;1.60;;
18685;SDS011;9473;52.342;13.110;2023-08-08T04:32:15;3.75;;;1.48;;
18685;SDS011;9473;52.342;13.110;2023-08-08T04:34:43;5.95;;;1.60;;
18685;SDS011;9473;52.342;13.110;2023-08-08T04:37:10;3.05;;;1.50;;
18685;SDS011;9473;52.342;13.110;2023-08-08T04:39:37;5.30;;;1.77;;
18685;SDS011;9473;52.342;13.110;2023-08-08T04:42:04;5.03;;;1.63;;
18685;SDS011;9473;52.342;13.110;2023-08-08T04:44:31;3.45;;;1.55;;
18685;SDS011;9473;52.342;13.110;2023-08-08T04:46:58;5.13;;;1.75;;
18685;SDS011;9473;52.342;13.110;2023-08-08T04:49:25;4.28;;;1.42;;
18685;SDS011;9473;52.342;13.110;2023-08-08T04:51:53;2.35;;;1.30;;
18685;SDS011;9473;52.342;13.110;2023-08-08T04:54:20;4.10;;;1.55;;
18685;SDS011;9473;52.342;13.110;2023-08-08T04:56:47;3.25;;;1.75;;
18685;SDS011;9473;52.342;13.110;2023-08-08T04:59:14;3.63;;;1.60;;
18685;SDS011;9473;52.342;13.110;2023-08-08T05:01:41;4.95;;;1.70;;
18685;SDS011;9473;52.342;13.110;2023-08-08T05:04:08;2.88;;;1.83;;
18685;SDS011;9473;52.342;13.110;2023-08-08T05:06:35;4.82;;;1.77;;
18685;SDS011;9473;52.342;13.110;2023-08-08T05:09:04;3.53;;;1.55;;
18685;SDS011;9473;52.342;13.110;2023-08-08T05:11:34;5.28;;;1.55;;
18685;SDS011;9473;52.342;13.110;2023-08-08T05:14:01;2.20;;;1.50;;
18685;SDS011;9473;52.342;13.110;2023-08-08T05:16:28;5.60;;;1.58;;
18685;SDS011;9473;52.342;13.110;2023-08-08T05:18:55;3.45;;;1.40;;
18685;SDS011;9473;52.342;13.110;2023-08-08T05:21:21;2.85;;;1.42;;
18685;SDS011;9473;52.342;13.110;2023-08-08T05:23:49;6.07;;;1.85;;
18685;SDS011;9473;52.342;13.110;2023-08-08T05:26:17;4.75;;;2.10;;
18685;SDS011;9473;52.342;13.110;2023-08-08T05:28:44;2.55;;;1.55;;
18685;SDS011;9473;52.342;13.110;2023-08-08T05:31:11;3.30;;;1.55;;
18685;SDS011;9473;52.342;13.110;2023-08-08T05:33:37;2.85;;;1.50;;
18685;SDS011;9473;52.342;13.110;2023-08-08T05:36:04;6.72;;;1.70;;
18685;SDS011;9473;52.342;13.110;2023-08-08T05:38:31;6.30;;;1.48;;
18685;SDS011;9473;52.342;13.110;2023-08-08T05:40:58;3.03;;;1.27;;
18685;SDS011;9473;52.342;13.110;2023-08-08T05:43:27;3.85;;;1.30;;
18685;SDS011;9473;52.342;13.110;2023-08-08T05:45:54;3.53;;;1.58;;
18685;SDS011;9473;52.342;13.110;2023-08-08T05:48:21;2.50;;;1.50;;
18685;SDS011;9473;52.342;13.110;2023-08-08T05:50:48;2.17;;;1.67;;
18685;SDS011;9473;52.342;13.110;2023-08-08T05:53:14;3.10;;;1.58;;
18685;SDS011;9473;52.342;13.110;2023-08-08T05:55:41;3.83;;;1.63;;
18685;SDS011;9473;52.342;13.110;2023-08-08T05:58:08;2.58;;;1.42;;
18685;SDS011;9473;52.342;13.110;2023-08-08T06:00:37;3.17;;;1.52;;
18685;SDS011;9473;52.342;13.110;2023-08-08T06:03:04;3.90;;;1.55;;
18685;SDS011;9473;52.342;13.110;2023-08-08T06:05:31;3.90;;;1.60;;
18685;SDS011;9473;52.342;13.110;2023-08-08T06:07:58;3.60;;;1.60;;
18685;SDS011;9473;52.342;13.110;2023-08-08T06:10:25;3.58;;;1.70;;
18685;SDS011;9473;52.342;13.110;2023-08-08T06:12:52;4.55;;;1.80;;
18685;SDS011;9473;52.342;13.110;2023-08-08T06:15:19;2.30;;;1.48;;
18685;SDS011;9473;52.342;13.110;2023-08-08T06:17:47;3.45;;;1.70;;
18685;SDS011;9473;52.342;13.110;2023-08-08T06:20:14;4.57;;;1.77;;
18685;SDS011;9473;52.342;13.110;2023-08-08T06:22:42;4.45;;;1.60;;
18685;SDS011;9473;52.342;13.110;2023-08-08T06:25:09;5.43;;;1.67;;
18685;SDS011;9473;52.342;13.110;2023-08-08T06:27:36;4.57;;;1.67;;
18685;SDS011;9473;52.342;13.110;2023-08-08T06:30:03;3.25;;;1.60;;
18685;SDS011;9473;52.342;13.110;2023-08-08T06:32:30;3.88;;;1.50;;
18685;SDS011;9473;52.342;13.110;2023-08-08T06:34:59;3.15;;;1.50;;
18685;SDS011;9473;52.342;13.110;2023-08-08T06:37:25;3.58;;;1.77;;
18685;SDS011;9473;52.342;13.110;2023-08-08T06:39:52;5.75;;;1.70;;
18685;SDS011;9473;52.342;13.110;2023-08-08T06:42:19;3.42;;;1.70;;
18685;SDS011;9473;52.342;13.110;2023-08-08T06:44:46;6.05;;;1.80;;
18685;SDS011;9473;52.342;13.110;2023-08-08T06:47:13;7.80;;;1.83;;
18685;SDS011;9473;52.342;13.110;2023-08-08T06:49:40;7.22;;;1.70;;
18685;SDS011;9473;52.342;13.110;2023-08-08T06:52:08;2.83;;;1.60;;
18685;SDS011;9473;52.342;13.110;2023-08-08T06:54:35;2.65;;;1.80;;
18685;SDS011;9473;52.342;13.110;2023-08-08T06:57:02;6.38;;;2.13;;
18685;SDS011;9473;52.342;13.110;2023-08-08T06:59:29;3.22;;;1.77;;
18685;SDS011;9473;52.342;13.110;2023-08-08T07:01:56;4.05;;;1.50;;
18685;SDS011;9473;52.342;13.110;2023-08-08T07:04:23;4.90;;;1.90;;
18685;SDS011;9473;52.342;13.110;2023-08-08T07:06:50;3.45;;;1.80;;
18685;SDS011;9473;52.342;13.110;2023-08-08T07:09:19;2.88;;;1.70;;
18685;SDS011;9473;52.342;13.110;2023-08-08T07:11:46;2.92;;;1.80;;
18685;SDS011;9473;52.342;13.110;2023-08-08T07:14:13;4.90;;;1.70;;
18685;SDS011;9473;52.342;13.110;2023-08-08T07:16:40;4.90;;;1.70;;
18685;SDS011;9473;52.342;13.110;2023-08-08T07:19:07;5.68;;;1.92;;
18685;SDS011;9473;52.342;13.110;2023-08-08T07:21:33;3.95;;;2.05;;
18685;SDS011;9473;52.342;13.110;2023-08-08T07:24:01;5.50;;;2.00;;
18685;SDS011;9473;52.342;13.110;2023-08-08T07:26:29;2.95;;;1.80;;
18685;SDS011;9473;52.342;13.110;2023-08-08T07:28:56;3.65;;;1.60;;
18685;SDS011;9473;52.342;13.110;2023-08-08T07:31:23;2.72;;;1.75;;
18685;SDS011;9473;52.342;13.110;2023-08-08T07:33:50;4.03;;;2.00;;
18685;SDS011;9473;52.342;13.110;2023-08-08T07:36:17;5.40;;;2.22;;
18685;SDS011;9473;52.342;13.110;2023-08-08T07:38:44;6.22;;;1.83;;
18685;SDS011;9473;52.342;13.110;2023-08-08T07:41:11;2.92;;;1.75;;
18685;SDS011;9473;52.342;13.110;2023-08-08T07:43:39;5.80;;;1.73;;
18685;SDS011;9473;52.342;13.110;2023-08-08T07:46:06;4.43;;;1.90;;
18685;SDS011;9473;52.342;13.110;2023-08-08T07:48:33;2.35;;;1.77;;
18685;SDS011;9473;52.342;13.110;2023-08-08T07:51:00;4.40;;;1.90;;
18685;SDS011;9473;52.342;13.110;2023-08-08T07:53:28;5.15;;;1.70;;
18685;SDS011;9473;52.342;13.110;2023-08-08T07:55:55;4.32;;;1.90;;
18685;SDS011;9473;52.342;13.110;2023-08-08T07:58:22;4.75;;;2.10;;
18685;SDS011;9473;52.342;13.110;2023-08-08T08:00:52;4.95;;;2.10;;
18685;SDS011;9473;52.342;13.110;2023-08-08T08:03:19;3.28;;;1.88;;
18685;SDS011;9473;52.342;13.110;2023-08-08T08:05:46;3.92;;;2.25;;
18685;SDS011;9473;52.342;13.110;2023-08-08T08:08:13;3.90;;;2.00;;
18685;SDS011;9473;52.342;13.110;2023-08-08T08:10:40;4.88;;;1.90;;
18685;SDS011;9473;52.342;13.110;2023-08-08T08:13:07;3.25;;;1.70;;
18685;SDS011;9473;52.342;13.110;2023-08-08T08:15:35;8.68;;;1.80;;
18685;SDS011;9473;52.342;13.110;2023-08-08T08:18:04;2.00;;;1.60;;
18685;SDS011;9473;52.342;13.110;2023-08-08T08:20:31;6.88;;;2.10;;
18685;SDS011;9473;52.342;13.110;2023-08-08T08:22:58;2.65;;;1.60;;
18685;SDS011;9473;52.342;13.110;2023-08-08T08:25:24;4.63;;;1.83;;
18685;SDS011;9473;52.342;13.110;2023-08-08T08:27:51;4.57;;;1.60;;
18685;SDS011;9473;52.342;13.110;2023-08-08T08:30:18;3.15;;;1.63;;
18685;SDS011;9473;52.342;13.110;2023-08-08T08:32:47;2.65;;;1.60;;
18685;SDS011;9473;52.342;13.110;2023-08-08T08:35:16;4.45;;;2.05;;
18685;SDS011;9473;52.342;13.110;2023-08-08T08:37:43;3.22;;;1.58;;
18685;SDS011;9473;52.342;13.110;2023-08-08T08:40:10;3.03;;;1.55;;
18685;SDS011;9473;52.342;13.110;2023-08-08T08:42:37;6.53;;;2.13;;
18685;SDS011;9473;52.342;13.110;2023-08-08T08:45:06;3.03;;;1.60;;
18685;SDS011;9473;52.342;13.110;2023-08-08T08:47:34;2.83;;;1.73;;
18685;SDS011;9473;52.342;13.110;2023-08-08T08:50:02;4.60;;;1.67;;
18685;SDS011;9473;52.342;13.110;2023-08-08T08:52:31;5.35;;;1.60;;
18685;SDS011;9473;52.342;13.110;2023-08-08T08:54:58;5.40;;;1.60;;
18685;SDS011;9473;52.342;13.110;2023-08-08T08:57:25;6.57;;;2.20;;
18685;SDS011;9473;52.342;13.110;2023-08-08T08:59:52;3.05;;;1.70;;
18685;SDS011;9473;52.342;13.110;2023-08-08T09:02:19;3.88;;;1.60;;
18685;SDS011;9473;52.342;13.110;2023-08-08T09:04:47;5.10;;;1.83;;
18685;SDS011;9473;52.342;13.110;2023-08-08T09:07:14;5.85;;;1.88;;
18685;SDS011;9473;52.342;13.110;2023-08-08T09:09:44;4.85;;;1.50;;
18685;SDS011;9473;52.342;13.110;2023-08-08T09:12:12;5.85;;;2.00;;
18685;SDS011;9473;52.342;13.110;2023-08-08T09:14:39;4.47;;;1.85;;
18685;SDS011;9473;52.342;13.110;2023-08-08T09:17:10;5.18;;;1.70;;
18685;SDS011;9473;52.342;13.110;2023-08-08T09:19:37;3.63;;;1.65;;
18685;SDS011;9473;52.342;13.110;2023-08-08T09:22:04;3.53;;;1.75;;
18685;SDS011;9473;52.342;13.110;2023-08-08T09:24:31;2.90;;;1.70;;
18685;SDS011;9473;52.342;13.110;2023-08-08T09:26:59;3.60;;;1.63;;
18685;SDS011;9473;52.342;13.110;2023-08-08T09:29:26;2.72;;;1.60;;
18685;SDS011;9473;52.342;13.110;2023-08-08T09:31:53;5.13;;;1.70;;
18685;SDS011;9473;52.342;13.110;2023-08-08T09:34:23;7.00;;;1.75;;
18685;SDS011;9473;52.342;13.110;2023-08-08T09:36:51;3.85;;;1.80;;
18685;SDS011;9473;52.342;13.110;2023-08-08T09:39:18;4.55;;;1.75;;
18685;SDS011;9473;52.342;13.110;2023-08-08T09:41:45;3.50;;;1.85;;
18685;SDS011;9473;52.342;13.110;2023-08-08T09:44:13;3.72;;;1.58;;
18685;SDS011;9473;52.342;13.110;2023-08-08T09:46:41;4.28;;;1.80;;
18685;SDS011;9473;52.342;13.110;2023-08-08T09:49:08;2.88;;;1.73;;
18685;SDS011;9473;52.342;13.110;2023-08-08T09:51:36;5.05;;;1.92;;
18685;SDS011;9473;52.342;13.110;2023-08-08T09:54:04;4.00;;;1.90;;
18685;SDS011;9473;52.342;13.110;2023-08-08T09:56:32;4.90;;;2.00;;
18685;SDS011;9473;52.342;13.110;2023-08-08T09:58:59;6.07;;;1.70;;
18685;SDS011;9473;52.342;13.110;2023-08-08T10:01:28;2.88;;;1.52;;
18685;SDS011;9473;52.342;13.110;2023-08-08T10:03:55;3.83;;;1.70;;
18685;SDS011;9473;52.342;13.110;2023-08-08T10:06:22;7.38;;;1.90;;
18685;SDS011;9473;52.342;13.110;2023-08-08T10:08:49;4.53;;;1.92;;
18685;SDS011;9473;52.342;13.110;2023-08-08T10:11:16;5.68;;;2.10;;
18685;SDS011;9473;52.342;13.110;2023-08-08T10:13:48;3.90;;;2.03;;
18685;SDS011;9473;52.342;13.110;2023-08-08T10:16:15;3.78;;;2.22;;
18685;SDS011;9473;52.342;13.110;2023-08-08T10:18:44;3.88;;;1.83;;
18685;SDS011;9473;52.342;13.110;2023-08-08T10:21:11;5.53;;;1.90;;
18685;SDS011;9473;52.342;13.110;2023-08-08T10:23:39;3.35;;;1.80;;
18685;SDS011;9473;52.342;13.110;2023-08-08T10:26:16;6.30;;;1.98;;
18685;SDS011;9473;52.342;13.110;2023-08-08T10:28:52;6.13;;;2.20;;
18685;SDS011;9473;52.342;13.110;2023-08-08T10:31:19;5.10;;;2.08;;
18685;SDS011;9473;52.342;13.110;2023-08-08T10:33:48;4.65;;;2.22;;
18685;SDS011;9473;52.342;13.110;2023-08-08T10:36:15;7.15;;;2.22;;
18685;SDS011;9473;52.342;13.110;2023-08-08T10:38:43;6.47;;;2.10;;
18685;SDS011;9473;52.342;13.110;2023-08-08T10:41:12;4.80;;;2.10;;
18685;SDS011;9473;52.342;13.110;2023-08-08T10:43:46;4.18;;;2.20;;
18685;SDS011;9473;52.342;13.110;2023-08-08T10:46:13;3.78;;;2.30;;
18685;SDS011;9473;52.342;13.110;2023-08-08T10:48:50;4.95;;;1.95;;
18685;SDS011;9473;52.342;13.110;2023-08-08T10:51:17;3.53;;;2.00;;
18685;SDS011;9473;52.342;13.110;2023-08-08T10:53:44;6.60;;;2.08;;
18685;SDS011;9473;52.342;13.110;2023-08-08T10:56:12;3.08;;;2.13;;
18685;SDS011;9473;52.342;13.110;2023-08-08T10:58:40;2.90;;;2.03;;
18685;SDS011;9473;52.342;13.110;2023-08-08T11:01:07;4.47;;;2.30;;
18685;SDS011;9473;52.342;13.110;2023-08-08T11:03:35;3.40;;;2.10;;
18685;SDS011;9473;52.342;13.110;2023-08-08T11:06:05;5.03;;;2.00;;
18685;SDS011;9473;52.342;13.110;2023-08-08T11:08:32;4.75;;;2.30;;
18685;SDS011;9473;52.342;13.110;2023-08-08T11:11:01;6.18;;;2.10;;
18685;SDS011;9473;52.342;13.110;2023-08-08T11:13:28;5.82;;;2.10;;
18685;SDS011;9473;52.342;13.110;2023-08-08T11:15:55;4.85;;;2.20;;
18685;SDS011;9473;52.342;13.110;2023-08-08T11:18:22;5.68;;;2.40;;
18685;SDS011;9473;52.342;13.110;2023-08-08T11:20:50;5.85;;;2.58;;
18685;SDS011;9473;52.342;13.110;2023-08-08T11:23:18;6.78;;;2.42;;
18685;SDS011;9473;52.342;13.110;2023-08-08T11:25:46;5.00;;;2.45;;
18685;SDS011;9473;52.342;13.110;2023-08-08T11:28:13;5.95;;;2.70;;
18685;SDS011;9473;52.342;13.110;2023-08-08T11:30:41;5.35;;;2.92;;
18685;SDS011;9473;52.342;13.110;2023-08-08T11:33:09;6.78;;;2.50;;
18685;SDS011;9473;52.342;13.110;2023-08-08T11:35:36;6.65;;;2.60;;
18685;SDS011;9473;52.342;13.110;2023-08-08T11:38:05;6.28;;;2.33;;
18685;SDS011;9473;52.342;13.110;2023-08-08T11:40:34;4.03;;;2.63;;
18685;SDS011;9473;52.342;13.110;2023-08-08T11:43:01;4.15;;;2.50;;
18685;SDS011;9473;52.342;13.110;2023-08-08T11:45:28;3.95;;;2.63;;
18685;SDS011;9473;52.342;13.110;2023-08-08T11:47:55;4.38;;;2.15;;
18685;SDS011;9473;52.342;13.110;2023-08-08T11:50:23;4.43;;;2.40;;
18685;SDS011;9473;52.342;13.110;2023-08-08T11:52:51;6.32;;;2.67;;
18685;SDS011;9473;52.342;13.110;2023-08-08T11:55:19;3.30;;;2.38;;
18685;SDS011;9473;52.342;13.110;2023-08-08T11:57:48;3.15;;;2.30;;
18685;SDS011;9473;52.342;13.110;2023-08-08T12:00:16;5.35;;;2.35;;
18685;SDS011;9473;52.342;13.110;2023-08-08T12:02:43;2.83;;;2.40;;
18685;SDS011;9473;52.342;13.110;2023-08-08T12:05:11;5.10;;;2.60;;
18685;SDS011;9473;52.342;13.110;2023-08-08T12:07:40;6.22;;;2.88;;
18685;SDS011;9473;52.342;13.110;2023-08-08T12:10:13;3.75;;;2.40;;
18685;SDS011;9473;52.342;13.110;2023-08-08T12:12:41;6.28;;;2.47;;
18685;SDS011;9473;52.342;13.110;2023-08-08T12:15:10;4.63;;;1.95;;
18685;SDS011;9473;52.342;13.110;2023-08-08T12:17:37;3.58;;;2.10;;
18685;SDS011;9473;52.342;13.110;2023-08-08T12:20:05;4.15;;;2.08;;
18685;SDS011;9473;52.342;13.110;2023-08-08T12:22:32;4.50;;;2.20;;
18685;SDS011;9473;52.342;13.110;2023-08-08T12:25:00;3.83;;;2.58;;
18685;SDS011;9473;52.342;13.110;2023-08-08T12:27:28;3.78;;;2.03;;
18685;SDS011;9473;52.342;13.110;2023-08-08T12:29:55;5.80;;;2.30;;
18685;SDS011;9473;52.342;13.110;2023-08-08T12:32:25;4.43;;;2.20;;
18685;SDS011;9473;52.342;13.110;2023-08-08T12:34:53;3.20;;;2.00;;
18685;SDS011;9473;52.342;13.110;2023-08-08T12:37:23;3.92;;;2.08;;
18685;SDS011;9473;52.342;13.110;2023-08-08T12:39:50;2.95;;;2.00;;
18685;SDS011;9473;52.342;13.110;2023-08-08T12:42:17;4.97;;;2.35;;
18685;SDS011;9473;52.342;13.110;2023-08-08T12:44:44;3.80;;;2.00;;
18685;SDS011;9473;52.342;13.110;2023-08-08T12:47:11;2.80;;;1.90;;
18685;SDS011;9473;52.342;13.110;2023-08-08T12:49:40;2.78;;;1.90;;
18685;SDS011;9473;52.342;13.110;2023-08-08T12:52:07;4.95;;;2.10;;
18685;SDS011;9473;52.342;13.110;2023-08-08T12:54:34;3.67;;;1.92;;
18685;SDS011;9473;52.342;13.110;2023-08-08T12:57:01;3.28;;;2.05;;
18685;SDS011;9473;52.342;13.110;2023-08-08T12:59:28;3.72;;;1.80;;
18685;SDS011;9473;52.342;13.110;2023-08-08T13:01:55;4.53;;;2.10;;
18685;SDS011;9473;52.342;13.110;2023-08-08T13:04:22;5.80;;;1.90;;
18685;SDS011;9473;52.342;13.110;2023-08-08T13:06:51;3.28;;;2.08;;
18685;SDS011;9473;52.342;13.110;2023-08-08T13:09:18;3.08;;;2.20;;
18685;SDS011;9473;52.342;13.110;2023-08-08T13:11:45;3.42;;;1.88;;
18685;SDS011;9473;52.342;13.110;2023-08-08T13:14:12;3.92;;;1.67;;
18685;SDS011;9473;52.342;13.110;2023-08-08T13:16:39;3.85;;;2.00;;
18685;SDS011;9473;52.342;13.110;2023-08-08T13:19:06;4.18;;;1.50;;
18685;SDS011;9473;52.342;13.110;2023-08-08T13:21:33;2.67;;;1.60;;
18685;SDS011;9473;52.342;13.110;2023-08-08T13:24:01;7.85;;;1.90;;
18685;SDS011;9473;52.342;13.110;2023-08-08T13:26:29;3.05;;;2.00;;
18685;SDS011;9473;52.342;13.110;2023-08-08T13:28:56;3.47;;;2.00;;
18685;SDS011;9473;52.342;13.110;2023-08-08T13:31:22;2.70;;;1.83;;
18685;SDS011;9473;52.342;13.110;2023-08-08T13:33:49;6.60;;;1.90;;
18685;SDS011;9473;52.342;13.110;2023-08-08T13:36:16;3.30;;;1.63;;
18685;SDS011;9473;52.342;13.110;2023-08-08T13:38:43;2.50;;;1.75;;
18685;SDS011;9473;52.342;13.110;2023-08-08T13:41:11;2.72;;;1.63;;
18685;SDS011;9473;52.342;13.110;2023-08-08T13:43:38;3.60;;;1.65;;
18685;SDS011;9473;52.342;13.110;2023-08-08T13:46:05;2.38;;;1.75;;
18685;SDS011;9473;52.342;13.110;2023-08-08T13:48:34;2.78;;;1.90;;
18685;SDS011;9473;52.342;13.110;2023-08-08T13:51:01;4.53;;;1.73;;
18685;SDS011;9473;52.342;13.110;2023-08-08T13:53:28;5.13;;;1.70;;
18685;SDS011;9473;52.342;13.110;2023-08-08T13:55:56;2.72;;;1.55;;
18685;SDS011;9473;52.342;13.110;2023-08-08T13:58:24;2.05;;;1.50;;
18685;SDS011;9473;52.342;13.110;2023-08-08T14:00:51;2.95;;;1.48;;
18685;SDS011;9473;52.342;13.110;2023-08-08T14:03:18;3.75;;;2.00;;
18685;SDS011;9473;52.342;13.110;2023-08-08T14:05:45;2.35;;;1.48;;
18685;SDS011;9473;52.342;13.110;2023-08-08T14:08:12;5.30;;;1.92;;
18685;SDS011;9473;52.342;13.110;2023-08-08T14:10:39;3.33;;;1.77;;
18685;SDS011;9473;52.342;13.110;2023-08-08T14:13:06;2.70;;;1.65;;
18685;SDS011;9473;52.342;13.110;2023-08-08T14:15:34;4.07;;;1.60;;
18685;SDS011;9473;52.342;13.110;2023-08-08T14:18:01;2.67;;;1.65;;
18685;SDS011;9473;52.342;13.110;2023-08-08T14:20:28;3.00;;;1.60;;
18685;SDS011;9473;52.342;13.110;2023-08-08T14:22:55;5.63;;;1.83;;
18685;SDS011;9473;52.342;13.110;2023-08-08T14:25:22;4.07;;;1.85;;
18685;SDS011;9473;52.342;13.110;2023-08-08T14:27:49;2.58;;;1.73;;
18685;SDS011;9473;52.342;13.110;2023-08-08T14:30:16;4.55;;;1.92;;
18685;SDS011;9473;52.342;13.110;2023-08-08T14:32:44;3.00;;;2.10;;
18685;SDS011;9473;52.342;13.110;2023-08-08T14:35:11;6.30;;;2.17;;
18685;SDS011;9473;52.342;13.110;2023-08-08T14:37:39;4.93;;;2.13;;
18685;SDS011;9473;52.342;13.110;2023-08-08T14:40:06;3.45;;;2.20;;
18685;SDS011;9473;52.342;13.110;2023-08-08T14:42:33;4.95;;;2.47;;
18685;SDS011;9473;52.342;13.110;2023-08-08T14:45:00;4.50;;;2.53;;
18685;SDS011;9473;52.342;13.110;2023-08-08T14:47:27;5.28;;;2.25;;
18685;SDS011;9473;52.342;13.110;2023-08-08T14:49:55;3.03;;;2.33;;